createdAt,value
2017-06-16T00:02:07.290Z,21.20
2017-06-16T00:04:35.527Z,21.20
2017-06-16T00:07:03.018Z,21.20
2017-06-16T00:09:30.496Z,21.30
2017-06-16T00:11:57.995Z,21.30
2017-06-16T00:14:26.327Z,21.20
2017-06-16T00:16:53.806Z,21.20
2017-06-16T00:19:21.299Z,21.20
2017-06-16T00:21:48.775Z,21.20
2017-06-16T00:24:17.087Z,21.20
2017-06-16T00:26:44.554Z,21.20
2017-06-16T00:29:12.046Z,21.20
2017-06-16T00:31:40.298Z,21.10
2017-06-16T00:34:07.790Z,21.10
2017-06-16T00:36:35.267Z,21.10
2017-06-16T00:39:02.761Z,21.00
2017-06-16T00:41:30.234Z,21.00
2017-06-16T00:43:58.473Z,21.00
2017-06-16T00:46:25.978Z,21.00
2017-06-16T00:48:53.455Z,21.00
2017-06-16T00:51:20.951Z,21.00
2017-06-16T00:53:48.438Z,21.00
2017-06-16T00:56:15.935Z,21.00
2017-06-16T00:58:43.415Z,20.90
2017-06-16T01:01:10.919Z,20.90
2017-06-16T01:03:38.402Z,20.80
2017-06-16T01:06:05.895Z,20.80
2017-06-16T01:08:34.138Z,20.80
2017-06-16T01:11:01.630Z,20.80
2017-06-16T01:13:29.874Z,20.80
2017-06-16T01:15:57.362Z,20.70
2017-06-16T01:18:25.600Z,20.70
2017-06-16T01:20:53.104Z,20.70
2017-06-16T01:23:20.584Z,20.60
2017-06-16T01:25:48.062Z,20.60
2017-06-16T01:28:15.556Z,20.60
2017-06-16T01:30:43.790Z,20.50
2017-06-16T01:33:11.291Z,20.50
2017-06-16T01:35:39.536Z,20.30
2017-06-16T01:38:07.047Z,20.30
2017-06-16T01:40:34.518Z,20.30
2017-06-16T01:43:02.019Z,20.30
2017-06-16T01:45:30.264Z,20.20
2017-06-16T01:47:57.762Z,20.20
2017-06-16T01:50:25.998Z,20.10
2017-06-16T01:52:53.507Z,20.10
2017-06-16T01:55:20.990Z,20.00
2017-06-16T01:57:48.474Z,20.00
2017-06-16T02:00:15.975Z,20.00
2017-06-16T02:02:43.451Z,20.00
2017-06-16T02:05:10.939Z,20.00
2017-06-16T02:07:38.414Z,19.90
2017-06-16T02:10:06.679Z,19.90
2017-06-16T02:12:34.154Z,19.90
2017-06-16T02:15:02.422Z,19.90
2017-06-16T02:17:29.906Z,19.90
2017-06-16T02:19:57.406Z,19.80
2017-06-16T02:22:24.917Z,19.70
2017-06-16T02:24:53.171Z,19.60
2017-06-16T02:27:21.418Z,19.70
2017-06-16T02:29:48.892Z,19.70
2017-06-16T02:32:16.382Z,19.60
2017-06-16T02:34:43.855Z,19.60
2017-06-16T02:37:11.347Z,19.40
2017-06-16T02:39:38.818Z,19.50
2017-06-16T02:42:06.310Z,19.40
2017-06-16T02:44:33.788Z,19.40
2017-06-16T02:47:01.291Z,19.30
2017-06-16T02:49:28.768Z,19.30
2017-06-16T02:51:56.282Z,19.30
2017-06-16T02:54:23.755Z,19.20
2017-06-16T02:56:51.228Z,19.20
2017-06-16T02:59:18.724Z,19.20
2017-06-16T03:01:46.199Z,19.20
2017-06-16T03:04:13.695Z,19.20
2017-06-16T03:06:41.943Z,19.20
2017-06-16T03:09:25.355Z,19.10
2017-06-16T03:11:52.834Z,19.00
2017-06-16T03:14:20.322Z,18.90
2017-06-16T03:16:47.859Z,18.90
2017-06-16T03:19:15.342Z,18.90
2017-06-16T03:21:48.463Z,18.90
2017-06-16T03:24:21.699Z,18.80
2017-06-16T03:26:49.175Z,18.70
2017-06-16T03:29:17.431Z,18.70
2017-06-16T03:31:45.674Z,18.60
2017-06-16T03:34:13.170Z,18.60
2017-06-16T03:36:41.410Z,18.80
2017-06-16T03:39:09.224Z,18.70
2017-06-16T03:41:36.702Z,18.60
2017-06-16T03:44:04.180Z,18.70
2017-06-16T03:46:31.667Z,18.70
2017-06-16T03:48:59.142Z,19.00
2017-06-16T03:51:26.646Z,19.00
2017-06-16T03:53:54.126Z,18.90
2017-06-16T03:56:22.382Z,18.80
2017-06-16T03:58:49.862Z,18.80
2017-06-16T04:01:17.358Z,18.80
2017-06-16T04:03:44.834Z,18.80
2017-06-16T04:06:12.318Z,18.70
2017-06-16T04:08:40.571Z,18.50
2017-06-16T04:11:08.063Z,18.50
2017-06-16T04:13:35.540Z,18.60
2017-06-16T04:16:03.032Z,18.50
2017-06-16T04:18:30.508Z,18.60
2017-06-16T04:20:58.791Z,18.40
2017-06-16T04:23:27.030Z,18.40
2017-06-16T04:25:54.502Z,18.40
2017-06-16T04:28:21.996Z,18.40
2017-06-16T04:30:49.470Z,18.50
2017-06-16T04:33:16.975Z,18.60
2017-06-16T04:35:44.442Z,18.70
2017-06-16T04:38:12.710Z,18.60
2017-06-16T04:40:40.955Z,18.70
2017-06-16T04:43:08.446Z,18.70
2017-06-16T04:45:35.929Z,18.70
2017-06-16T04:48:03.434Z,18.70
2017-06-16T04:50:30.913Z,18.70
2017-06-16T04:52:58.410Z,18.90
2017-06-16T04:55:25.891Z,18.90
2017-06-16T04:57:53.399Z,19.00
2017-06-16T05:00:20.892Z,19.20
2017-06-16T05:02:48.368Z,19.30
2017-06-16T05:05:16.626Z,19.40
2017-06-16T05:07:44.111Z,19.40
2017-06-16T05:10:12.371Z,19.40
2017-06-16T05:12:40.614Z,19.30
2017-06-16T05:15:08.126Z,19.30
2017-06-16T05:17:35.606Z,19.40
2017-06-16T05:20:03.107Z,19.30
2017-06-16T05:22:47.405Z,19.20
2017-06-16T05:25:14.901Z,19.30
2017-06-16T05:27:42.418Z,19.30
2017-06-16T05:30:09.892Z,19.40
2017-06-16T05:32:37.387Z,19.40
2017-06-16T05:35:05.663Z,19.20
2017-06-16T05:37:33.928Z,19.40
2017-06-16T05:40:02.190Z,19.40
2017-06-16T05:42:29.687Z,19.40
2017-06-16T05:44:57.179Z,19.30
2017-06-16T05:47:24.674Z,19.30
2017-06-16T05:49:52.944Z,19.10
2017-06-16T05:52:20.455Z,19.10
2017-06-16T05:54:47.946Z,19.20
2017-06-16T05:57:15.422Z,19.20
2017-06-16T05:59:42.915Z,19.10
2017-06-16T06:02:10.411Z,19.00
2017-06-16T06:04:37.904Z,18.90
2017-06-16T06:07:05.374Z,19.10
2017-06-16T06:09:32.873Z,19.30
2017-06-16T06:12:00.356Z,19.30
2017-06-16T06:14:27.851Z,19.70
2017-06-16T06:16:55.322Z,20.50
2017-06-16T06:19:22.818Z,21.10
2017-06-16T06:21:50.297Z,21.70
2017-06-16T06:24:17.790Z,21.50
2017-06-16T06:26:45.264Z,21.20
2017-06-16T06:29:13.502Z,19.70
2017-06-16T06:31:40.992Z,19.70
2017-06-16T06:34:09.244Z,20.10
2017-06-16T06:36:36.735Z,20.10
2017-06-16T06:39:04.224Z,20.10
2017-06-16T06:41:31.733Z,20.00
2017-06-16T06:43:59.970Z,20.50
2017-06-16T06:46:27.460Z,20.50
2017-06-16T06:48:55.710Z,21.40
2017-06-16T06:51:23.202Z,21.40
2017-06-16T06:53:50.675Z,21.70
2017-06-16T06:56:18.150Z,21.90
2017-06-16T06:58:45.638Z,22.40
2017-06-16T07:01:13.122Z,22.20
2017-06-16T07:03:40.609Z,22.10
2017-06-16T07:06:08.087Z,22.00
2017-06-16T07:08:35.571Z,22.10
2017-06-16T07:11:03.820Z,22.40
2017-06-16T07:13:31.316Z,22.30
2017-06-16T07:15:58.784Z,22.90
2017-06-16T07:18:26.276Z,23.30
2017-06-16T07:20:53.751Z,24.00
2017-06-16T07:23:21.999Z,25.70
2017-06-16T07:25:49.487Z,25.70
2017-06-16T07:28:16.966Z,25.80
2017-06-16T07:30:44.455Z,25.10
2017-06-16T07:33:11.927Z,25.50
2017-06-16T07:35:39.470Z,26.10
2017-06-16T07:38:06.939Z,26.10
2017-06-16T07:40:34.443Z,26.70
2017-06-16T07:43:01.915Z,26.60
2017-06-16T07:45:29.406Z,26.50
2017-06-16T07:47:56.881Z,26.20
2017-06-16T07:50:25.155Z,26.10
2017-06-16T07:52:53.394Z,26.10
2017-06-16T07:55:20.867Z,26.10
2017-06-16T07:57:49.129Z,25.70
2017-06-16T08:00:16.598Z,25.70
2017-06-16T08:02:44.091Z,25.50
2017-06-16T08:05:11.567Z,26.20
2017-06-16T08:07:39.055Z,26.00
2017-06-16T08:10:06.526Z,25.50
2017-06-16T08:12:34.781Z,24.30
2017-06-16T08:15:02.252Z,24.30
2017-06-16T08:17:29.738Z,24.90
2017-06-16T08:19:57.214Z,25.20
2017-06-16T08:22:24.707Z,25.30
2017-06-16T08:24:52.171Z,25.00
2017-06-16T08:27:19.680Z,24.70
2017-06-16T08:29:47.157Z,24.60
2017-06-16T08:32:14.638Z,24.00
2017-06-16T08:34:42.130Z,23.50
2017-06-16T08:37:09.606Z,23.10
2017-06-16T08:39:37.102Z,24.00
2017-06-16T08:42:05.343Z,26.00
2017-06-16T08:44:32.838Z,26.00
2017-06-16T08:47:00.312Z,26.80
2017-06-16T08:49:27.803Z,26.60
2017-06-16T08:51:55.279Z,26.50
2017-06-16T08:54:23.543Z,26.00
2017-06-16T08:56:51.018Z,26.00
2017-06-16T08:59:19.275Z,27.60
2017-06-16T09:01:47.518Z,27.20
2017-06-16T09:04:15.008Z,27.20
2017-06-16T09:06:43.306Z,27.10
2017-06-16T09:09:10.818Z,27.10
2017-06-16T09:11:41.055Z,26.20
2017-06-16T09:14:09.298Z,26.90
2017-06-16T09:16:36.796Z,26.90
2017-06-16T09:19:04.278Z,27.70
2017-06-16T09:21:31.778Z,28.00
2017-06-16T09:23:59.255Z,28.20
2017-06-16T09:26:27.527Z,25.80
2017-06-16T09:28:55.007Z,25.80
2017-06-16T09:31:22.503Z,26.60
2017-06-16T09:33:49.978Z,26.50
2017-06-16T09:36:18.247Z,25.50
2017-06-16T09:38:45.719Z,25.40
2017-06-16T09:41:13.994Z,24.90
2017-06-16T09:43:42.244Z,25.50
2017-06-16T09:46:09.743Z,25.40
2017-06-16T09:48:37.233Z,26.00
2017-06-16T09:51:04.719Z,26.30
2017-06-16T09:53:32.206Z,25.70
2017-06-16T09:55:59.678Z,25.20
2017-06-16T09:58:27.170Z,24.70
2017-06-16T10:00:54.653Z,24.30
2017-06-16T10:03:22.162Z,24.70
2017-06-16T10:05:49.639Z,24.30
2017-06-16T10:08:17.115Z,24.10
2017-06-16T10:10:45.379Z,23.70
2017-06-16T10:13:13.623Z,23.80
2017-06-16T10:15:41.114Z,23.70
2017-06-16T10:18:09.361Z,24.10
2017-06-16T10:20:36.855Z,24.10
2017-06-16T10:23:04.346Z,24.90
2017-06-16T10:25:31.835Z,25.70
2017-06-16T10:27:59.306Z,26.20
2017-06-16T10:30:26.795Z,25.70
2017-06-16T10:32:54.274Z,25.90
2017-06-16T10:35:21.799Z,26.10
2017-06-16T10:37:49.310Z,25.90
2017-06-16T10:40:17.547Z,26.00
2017-06-16T10:42:45.043Z,26.00
2017-06-16T10:45:13.286Z,26.40
2017-06-16T10:47:40.778Z,26.40
2017-06-16T10:50:08.282Z,27.20
2017-06-16T10:52:35.787Z,26.30
2017-06-16T10:55:04.029Z,25.20
2017-06-16T10:57:31.523Z,25.20
2017-06-16T10:59:59.002Z,24.80
2017-06-16T11:02:26.497Z,24.50
2017-06-16T11:04:53.978Z,24.50
2017-06-16T11:07:22.274Z,24.40
2017-06-16T11:09:49.747Z,24.40
2017-06-16T11:12:17.225Z,24.40
2017-06-16T11:14:44.720Z,25.00
2017-06-16T11:17:12.197Z,25.30
2017-06-16T11:19:39.689Z,25.70
2017-06-16T11:22:07.177Z,26.70
2017-06-16T11:24:35.447Z,26.20
2017-06-16T11:27:03.690Z,24.80
2017-06-16T11:29:31.970Z,23.70
2017-06-16T11:31:59.442Z,23.60
2017-06-16T11:34:27.699Z,24.00
2017-06-16T11:36:55.178Z,24.00
2017-06-16T11:39:23.432Z,24.00
2017-06-16T11:41:50.898Z,24.00
2017-06-16T11:44:19.158Z,24.90
2017-06-16T11:46:46.634Z,24.90
2017-06-16T11:49:14.115Z,25.00
2017-06-16T11:51:41.609Z,25.00
2017-06-16T11:54:09.087Z,25.40
2017-06-16T11:56:37.344Z,25.20
2017-06-16T11:59:04.817Z,25.20
2017-06-16T12:01:32.306Z,24.90
2017-06-16T12:03:59.794Z,24.90
2017-06-16T12:06:27.298Z,24.80
2017-06-16T12:08:54.783Z,25.30
2017-06-16T12:11:22.258Z,25.70
2017-06-16T12:13:49.748Z,25.20
2017-06-16T12:16:17.995Z,24.00
2017-06-16T12:18:45.486Z,24.00
2017-06-16T12:21:12.967Z,23.50
2017-06-16T12:23:40.457Z,23.40
2017-06-16T12:26:07.922Z,23.40
2017-06-16T12:28:35.407Z,23.40
2017-06-16T12:31:02.886Z,23.30
2017-06-16T12:33:30.378Z,23.20
2017-06-16T12:35:57.850Z,23.30
2017-06-16T12:38:26.110Z,24.40
2017-06-16T12:40:53.602Z,24.40
2017-06-16T12:43:21.358Z,25.30
2017-06-16T12:45:49.998Z,25.90
2017-06-16T12:48:17.507Z,26.10
2017-06-16T12:50:45.000Z,25.40
2017-06-16T12:53:12.475Z,24.60
2017-06-16T12:55:39.972Z,24.20
2017-06-16T12:58:07.450Z,24.80
2017-06-16T13:00:34.943Z,24.90
2017-06-16T13:03:03.191Z,25.60
2017-06-16T13:05:30.682Z,25.60
2017-06-16T13:07:58.923Z,25.60
2017-06-16T13:10:26.411Z,25.60
2017-06-16T13:12:54.667Z,25.60
2017-06-16T13:15:22.911Z,25.20
2017-06-16T13:17:50.402Z,25.20
2017-06-16T13:20:18.654Z,25.00
2017-06-16T13:22:46.157Z,25.00
2017-06-16T13:25:13.643Z,24.20
2017-06-16T13:27:41.125Z,24.20
2017-06-16T13:30:08.602Z,24.30
2017-06-16T13:32:36.095Z,24.10
2017-06-16T13:35:03.570Z,23.60
2017-06-16T13:37:31.062Z,22.90
2017-06-16T13:39:59.303Z,22.40
2017-06-16T13:42:26.774Z,22.40
2017-06-16T13:44:55.034Z,22.50
2017-06-16T13:47:22.513Z,22.50
2017-06-16T13:49:50.773Z,22.60
2017-06-16T13:52:18.259Z,22.60
2017-06-16T13:54:45.754Z,23.20
2017-06-16T13:57:13.230Z,23.40
2017-06-16T13:59:40.739Z,23.70
2017-06-16T14:02:08.219Z,23.90
2017-06-16T14:04:35.722Z,23.60
2017-06-16T14:07:03.211Z,23.30
2017-06-16T14:09:30.693Z,23.80
2017-06-16T14:11:58.182Z,23.50
2017-06-16T14:14:26.426Z,24.00
2017-06-16T14:16:53.918Z,24.00
2017-06-16T14:19:21.394Z,24.10
2017-06-16T14:21:48.889Z,23.80
2017-06-16T14:24:16.370Z,23.50
2017-06-16T14:26:44.634Z,23.40
2017-06-16T14:29:12.870Z,23.80
2017-06-16T14:31:40.346Z,23.80
2017-06-16T14:34:07.844Z,23.80
2017-06-16T14:36:35.315Z,23.70
2017-06-16T14:39:02.822Z,23.30
2017-06-16T14:41:30.295Z,23.00
2017-06-16T14:43:57.810Z,22.70
2017-06-16T14:46:25.292Z,22.80
2017-06-16T14:48:53.563Z,22.50
2017-06-16T14:51:21.806Z,22.30
2017-06-16T14:53:50.287Z,22.30
2017-06-16T14:56:17.897Z,22.60
2017-06-16T14:58:45.410Z,22.70
2017-06-16T15:01:12.888Z,22.60
2017-06-16T15:03:41.130Z,22.30
2017-06-16T15:06:08.623Z,22.30
2017-06-16T15:08:36.116Z,22.50
2017-06-16T15:11:03.610Z,22.40
2017-06-16T15:13:31.854Z,22.90
2017-06-16T15:15:59.352Z,22.90
2017-06-16T15:18:26.826Z,22.90
2017-06-16T15:20:54.319Z,23.10
2017-06-16T15:23:27.436Z,23.10
2017-06-16T15:25:55.695Z,23.20
2017-06-16T15:28:23.170Z,23.20
2017-06-16T15:30:51.435Z,23.00
2017-06-16T15:33:19.683Z,22.50
2017-06-16T15:35:47.850Z,22.40
2017-06-16T15:38:15.339Z,22.10
2017-06-16T15:40:43.579Z,21.90
2017-06-16T15:43:11.071Z,21.90
2017-06-16T15:45:39.306Z,22.00
2017-06-16T15:48:06.815Z,22.00
2017-06-16T15:50:34.286Z,22.10
2017-06-16T15:53:01.767Z,22.30
2017-06-16T15:55:29.254Z,22.20
2017-06-16T15:57:57.497Z,22.00
2017-06-16T16:00:24.994Z,22.00
2017-06-16T16:02:52.482Z,22.20
2017-06-16T16:05:19.982Z,22.10
2017-06-16T16:07:47.454Z,22.10
2017-06-16T16:10:15.722Z,21.90
2017-06-16T16:12:43.962Z,21.70
2017-06-16T16:15:11.437Z,21.70
2017-06-16T16:17:39.698Z,21.70
2017-06-16T16:20:07.171Z,21.70
2017-06-16T16:22:34.670Z,21.90
2017-06-16T16:25:02.144Z,21.80
2017-06-16T16:27:29.626Z,21.60
2017-06-16T16:29:57.099Z,21.60
2017-06-16T16:32:25.522Z,21.50
2017-06-16T16:34:53.002Z,21.50
2017-06-16T16:37:21.475Z,21.60
2017-06-16T16:39:48.950Z,21.80
2017-06-16T16:42:16.422Z,21.70
2017-06-16T16:44:43.922Z,21.90
2017-06-16T16:47:11.390Z,21.90
2017-06-16T16:49:38.879Z,21.80
2017-06-16T16:52:06.358Z,21.80
2017-06-16T16:54:33.859Z,21.70
2017-06-16T16:57:01.335Z,21.60
2017-06-16T16:59:29.596Z,21.10
2017-06-16T17:01:57.078Z,21.10
2017-06-16T17:04:24.571Z,21.00
2017-06-16T17:06:52.047Z,20.90
2017-06-16T17:09:19.534Z,20.90
2017-06-16T17:11:47.016Z,20.90
2017-06-16T17:14:14.530Z,21.00
2017-06-16T17:16:42.766Z,20.90
2017-06-16T17:19:10.245Z,20.90
2017-06-16T17:21:37.738Z,20.90
2017-06-16T17:24:05.207Z,20.90
2017-06-16T17:26:32.723Z,21.00
2017-06-16T17:29:00.962Z,21.20
2017-06-16T17:31:28.455Z,21.20
2017-06-16T17:33:56.695Z,21.00
2017-06-16T17:36:24.198Z,21.00
2017-06-16T17:38:51.675Z,20.90
2017-06-16T17:41:19.178Z,21.00
2017-06-16T17:43:47.434Z,21.20
2017-06-16T17:46:14.926Z,21.20
2017-06-16T17:48:43.167Z,20.50
2017-06-16T17:51:10.671Z,20.50
2017-06-16T17:53:38.150Z,20.60
2017-06-16T17:56:05.651Z,20.50
2017-06-16T17:58:33.130Z,20.30
2017-06-16T18:01:00.639Z,20.40
2017-06-16T18:03:28.114Z,20.30
2017-06-16T18:05:55.588Z,20.30
2017-06-16T18:08:23.082Z,20.40
2017-06-16T18:10:50.558Z,20.40
2017-06-16T18:13:18.052Z,20.40
2017-06-16T18:15:45.523Z,20.50
2017-06-16T18:18:13.016Z,20.50
2017-06-16T18:20:40.503Z,20.50
2017-06-16T18:23:08.016Z,20.60
2017-06-16T18:25:35.487Z,20.40
2017-06-16T18:28:02.980Z,20.30
2017-06-16T18:30:30.463Z,20.40
2017-06-16T18:32:57.967Z,20.30
2017-06-16T18:35:26.202Z,20.20
2017-06-16T18:37:53.696Z,20.10
2017-06-16T18:40:21.171Z,20.20
2017-06-16T18:42:48.667Z,20.00
2017-06-16T18:45:16.148Z,19.90
2017-06-16T18:47:43.638Z,19.80
2017-06-16T18:50:11.135Z,19.80
2017-06-16T18:52:38.615Z,19.70
2017-06-16T18:55:06.116Z,19.70
2017-06-16T18:57:33.598Z,19.70
2017-06-16T19:00:01.096Z,19.60
2017-06-16T19:02:29.103Z,19.60
2017-06-16T19:04:56.595Z,19.60
2017-06-16T19:07:24.066Z,19.50
2017-06-16T19:09:52.338Z,19.40
2017-06-16T19:12:19.818Z,19.40
2017-06-16T19:14:47.311Z,19.40
2017-06-16T19:17:14.790Z,19.40
2017-06-16T19:19:43.071Z,19.40
2017-06-16T19:22:11.318Z,19.40
2017-06-16T19:24:38.809Z,19.40
2017-06-16T19:27:07.071Z,19.30
2017-06-16T19:29:34.559Z,19.20
2017-06-16T19:32:02.050Z,19.20
2017-06-16T19:34:29.526Z,19.20
2017-06-16T19:36:57.014Z,19.20
2017-06-16T19:39:24.498Z,19.10
2017-06-16T19:41:51.991Z,19.10
2017-06-16T19:44:19.478Z,19.00
2017-06-16T19:46:46.978Z,19.10
2017-06-16T19:49:14.463Z,19.00
2017-06-16T19:51:42.736Z,19.00
2017-06-16T19:54:10.218Z,19.00
2017-06-16T19:56:37.699Z,18.90
2017-06-16T19:59:05.194Z,18.90
2017-06-16T20:01:32.676Z,18.90
2017-06-16T20:04:00.174Z,18.90
2017-06-16T20:06:27.654Z,18.90
2017-06-16T20:08:55.946Z,18.70
2017-06-16T20:11:24.194Z,18.80
2017-06-16T20:13:51.683Z,18.70
2017-06-16T20:16:19.168Z,18.80
2017-06-16T20:18:46.659Z,18.60
2017-06-16T20:21:14.168Z,18.50
2017-06-16T20:23:41.655Z,18.50
2017-06-16T20:26:09.146Z,18.40
2017-06-16T20:28:37.394Z,18.40
2017-06-16T20:31:04.947Z,18.40
2017-06-16T20:33:32.426Z,18.30
2017-06-16T20:36:00.686Z,18.30
2017-06-16T20:38:28.159Z,18.20
2017-06-16T20:40:55.658Z,18.10
2017-06-16T20:43:23.142Z,18.30
2017-06-16T20:45:50.618Z,18.10
2017-06-16T20:48:18.114Z,18.10
2017-06-16T20:50:45.591Z,18.00
2017-06-16T20:53:13.083Z,18.00
2017-06-16T20:55:40.562Z,18.00
2017-06-16T20:58:08.071Z,18.00
2017-06-16T21:00:35.547Z,17.90
2017-06-16T21:03:03.810Z,17.90
2017-06-16T21:05:32.059Z,17.80
2017-06-16T21:07:59.551Z,17.80
2017-06-16T21:10:27.038Z,17.80
2017-06-16T21:12:54.539Z,17.70
2017-06-16T21:15:22.027Z,17.80
2017-06-16T21:17:49.497Z,17.80
2017-06-16T21:20:16.990Z,17.80
2017-06-16T21:22:44.463Z,17.80
2017-06-16T21:25:12.727Z,17.60
2017-06-16T21:27:40.194Z,17.60
2017-06-16T21:30:08.454Z,17.40
2017-06-16T21:32:35.926Z,17.40
2017-06-16T21:35:04.186Z,17.50
2017-06-16T21:37:32.475Z,17.40
2017-06-16T21:40:00.743Z,17.30
2017-06-16T21:42:28.997Z,17.40
2017-06-16T21:44:56.499Z,17.50
2017-06-16T21:47:23.984Z,17.40
2017-06-16T21:49:51.466Z,17.40
2017-06-16T21:52:18.965Z,17.40
2017-06-16T21:54:46.452Z,17.30
2017-06-16T21:57:13.947Z,17.10
2017-06-16T21:59:42.191Z,17.10
2017-06-16T22:02:09.707Z,17.10
2017-06-16T22:04:37.195Z,17.10
2017-06-16T22:07:04.692Z,17.00
2017-06-16T22:09:32.172Z,17.00
2017-06-16T22:11:59.674Z,16.90
2017-06-16T22:14:27.147Z,16.90
2017-06-16T22:16:55.418Z,16.70
2017-06-16T22:19:23.661Z,16.70
2017-06-16T22:21:51.158Z,16.70
2017-06-16T22:24:18.639Z,16.70
2017-06-16T22:26:46.135Z,16.70
2017-06-16T22:29:13.618Z,16.60
2017-06-16T22:31:41.860Z,16.60
2017-06-16T22:34:09.366Z,16.60
2017-06-16T22:36:36.842Z,16.70
2017-06-16T22:39:04.339Z,16.80
2017-06-16T22:41:31.823Z,16.80
2017-06-16T22:43:59.314Z,16.70
2017-06-16T22:46:26.794Z,16.70
2017-06-16T22:48:54.291Z,16.60
2017-06-16T22:51:21.774Z,16.70
2017-06-16T22:53:49.273Z,16.70
2017-06-16T22:56:17.519Z,16.60
2017-06-16T22:58:45.015Z,16.60
2017-06-16T23:01:12.494Z,16.70
2017-06-16T23:03:39.974Z,16.70
2017-06-16T23:06:07.469Z,16.50
2017-06-16T23:08:35.720Z,16.50
2017-06-16T23:11:03.227Z,16.50
2017-06-16T23:13:30.707Z,16.40
2017-06-16T23:15:58.207Z,16.50
2017-06-16T23:18:26.449Z,16.50
2017-06-16T23:20:53.943Z,16.50
2017-06-16T23:23:21.423Z,16.60
2017-06-16T23:25:48.920Z,16.50
2017-06-16T23:28:16.403Z,16.50
2017-06-16T23:30:43.894Z,16.60
2017-06-16T23:33:11.378Z,16.60
2017-06-16T23:35:38.927Z,16.60
2017-06-16T23:38:06.430Z,16.50
2017-06-16T23:40:33.911Z,16.40
2017-06-16T23:43:01.400Z,16.40
2017-06-16T23:45:28.879Z,16.30
2017-06-16T23:47:57.143Z,16.30
2017-06-16T23:50:24.624Z,16.30
2017-06-16T23:52:52.118Z,16.10
2017-06-16T23:55:19.603Z,16.10
2017-06-16T23:57:47.106Z,16.10
